sensor_id;sensor_type;location;lat;lon;timestamp;P1;durP1;ratioP1;P2;durP2;ratioP2
6394;SDS011;3230;42.588;23.358;2022-08-11T00:00:10;7.60;;;6.27;;
6394;SDS011;3230;42.588;23.358;2022-08-11T00:02:38;7.73;;;6.60;;
6394;SDS011;3230;42.588;23.358;2022-08-11T00:05:12;9.73;;;6.60;;
6394;SDS011;3230;42.588;23.358;2022-08-11T00:07:49;7.50;;;6.47;;
6394;SDS011;3230;42.588;23.358;2022-08-11T00:10:17;10.07;;;6.83;;
6394;SDS011;3230;42.588;23.358;2022-08-11T00:12:50;8.00;;;6.27;;
6394;SDS011;3230;42.588;23.358;2022-08-11T00:15:16;10.10;;;7.17;;
6394;SDS011;3230;42.588;23.358;2022-08-11T00:17:42;8.90;;;6.77;;
6394;SDS011;3230;42.588;23.358;2022-08-11T00:20:10;9.67;;;6.60;;
6394;SDS011;3230;42.588;23.358;2022-08-11T00:22:38;6.90;;;6.20;;
6394;SDS011;3230;42.588;23.358;2022-08-11T00:25:09;12.93;;;7.40;;
6394;SDS011;3230;42.588;23.358;2022-08-11T00:27:37;11.67;;;7.43;;
6394;SDS011;3230;42.588;23.358;2022-08-11T00:30:04;10.57;;;7.00;;
6394;SDS011;3230;42.588;23.358;2022-08-11T00:32:31;9.77;;;7.13;;
6394;SDS011;3230;42.588;23.358;2022-08-11T00:34:57;8.80;;;7.10;;
6394;SDS011;3230;42.588;23.358;2022-08-11T00:37:25;8.40;;;6.73;;
6394;SDS011;3230;42.588;23.358;2022-08-11T00:39:53;8.77;;;6.80;;
6394;SDS011;3230;42.588;23.358;2022-08-11T00:45:28;11.10;;;7.30;;
6394;SDS011;3230;42.588;23.358;2022-08-11T00:53:15;11.07;;;6.70;;
6394;SDS011;3230;42.588;23.358;2022-08-11T01:45:10;10.83;;;7.20;;
6394;SDS011;3230;42.588;23.358;2022-08-11T01:47:44;9.23;;;7.50;;
6394;SDS011;3230;42.588;23.358;2022-08-11T02:05:19;8.63;;;6.87;;
6394;SDS011;3230;42.588;23.358;2022-08-11T02:10:57;9.43;;;7.40;;
6394;SDS011;3230;42.588;23.358;2022-08-11T02:19:43;10.50;;;6.73;;
6394;SDS011;3230;42.588;23.358;2022-08-11T02:30:53;10.03;;;7.10;;
6394;SDS011;3230;42.588;23.358;2022-08-11T02:33:56;8.90;;;6.47;;
6394;SDS011;3230;42.588;23.358;2022-08-11T02:48:07;10.10;;;6.87;;
6394;SDS011;3230;42.588;23.358;2022-08-11T02:57:00;12.10;;;6.30;;
6394;SDS011;3230;42.588;23.358;2022-08-11T03:21:41;8.37;;;6.40;;
6394;SDS011;3230;42.588;23.358;2022-08-11T03:24:13;9.70;;;6.37;;
6394;SDS011;3230;42.588;23.358;2022-08-11T03:29:36;10.10;;;6.47;;
6394;SDS011;3230;42.588;23.358;2022-08-11T03:32:29;8.40;;;6.23;;
6394;SDS011;3230;42.588;23.358;2022-08-11T03:35:02;9.00;;;6.50;;
6394;SDS011;3230;42.588;23.358;2022-08-11T03:37:38;8.77;;;6.80;;
6394;SDS011;3230;42.588;23.358;2022-08-11T03:40:24;9.07;;;6.67;;
6394;SDS011;3230;42.588;23.358;2022-08-11T03:51:22;8.70;;;6.80;;
6394;SDS011;3230;42.588;23.358;2022-08-11T03:54:02;18.97;;;7.07;;
6394;SDS011;3230;42.588;23.358;2022-08-11T04:36:09;7.20;;;5.60;;
6394;SDS011;3230;42.588;23.358;2022-08-11T04:50:21;6.90;;;5.30;;
6394;SDS011;3230;42.588;23.358;2022-08-11T04:56:27;5.63;;;4.63;;
6394;SDS011;3230;42.588;23.358;2022-08-11T05:05:13;9.07;;;5.43;;
6394;SDS011;3230;42.588;23.358;2022-08-11T05:13:45;6.30;;;4.43;;
6394;SDS011;3230;42.588;23.358;2022-08-11T05:19:33;5.40;;;4.50;;
6394;SDS011;3230;42.588;23.358;2022-08-11T05:22:19;9.67;;;4.70;;
6394;SDS011;3230;42.588;23.358;2022-08-11T05:25:09;6.13;;;4.67;;
6394;SDS011;3230;42.588;23.358;2022-08-11T05:28:02;5.50;;;5.00;;
6394;SDS011;3230;42.588;23.358;2022-08-11T05:30:46;5.70;;;5.00;;
6394;SDS011;3230;42.588;23.358;2022-08-11T05:36:44;6.40;;;4.33;;
6394;SDS011;3230;42.588;23.358;2022-08-11T05:39:14;11.23;;;4.90;;
6394;SDS011;3230;42.588;23.358;2022-08-11T05:42:00;4.63;;;4.23;;
6394;SDS011;3230;42.588;23.358;2022-08-11T05:44:47;6.80;;;4.57;;
6394;SDS011;3230;42.588;23.358;2022-08-11T05:47:33;5.00;;;4.50;;
6394;SDS011;3230;42.588;23.358;2022-08-11T05:50:19;6.90;;;4.20;;
6394;SDS011;3230;42.588;23.358;2022-08-11T05:53:07;5.30;;;4.40;;
6394;SDS011;3230;42.588;23.358;2022-08-11T05:55:54;6.10;;;5.30;;
6394;SDS011;3230;42.588;23.358;2022-08-11T05:58:40;8.07;;;5.67;;
6394;SDS011;3230;42.588;23.358;2022-08-11T06:01:12;6.57;;;5.30;;
6394;SDS011;3230;42.588;23.358;2022-08-11T06:03:47;6.80;;;5.30;;
6394;SDS011;3230;42.588;23.358;2022-08-11T06:06:35;7.43;;;4.87;;
6394;SDS011;3230;42.588;23.358;2022-08-11T06:09:04;11.10;;;5.13;;
6394;SDS011;3230;42.588;23.358;2022-08-11T06:11:35;5.70;;;4.40;;
6394;SDS011;3230;42.588;23.358;2022-08-11T06:14:04;13.20;;;5.10;;
6394;SDS011;3230;42.588;23.358;2022-08-11T06:16:30;4.50;;;4.10;;
6394;SDS011;3230;42.588;23.358;2022-08-11T06:18:56;5.77;;;4.20;;
6394;SDS011;3230;42.588;23.358;2022-08-11T06:21:24;4.97;;;4.47;;
6394;SDS011;3230;42.588;23.358;2022-08-11T06:23:50;7.30;;;4.70;;
6394;SDS011;3230;42.588;23.358;2022-08-11T06:26:16;5.53;;;4.37;;
6394;SDS011;3230;42.588;23.358;2022-08-11T06:28:45;5.00;;;4.10;;
6394;SDS011;3230;42.588;23.358;2022-08-11T06:31:13;5.00;;;4.50;;
6394;SDS011;3230;42.588;23.358;2022-08-11T06:43:29;5.07;;;4.57;;
6394;SDS011;3230;42.588;23.358;2022-08-11T06:48:13;5.40;;;4.87;;
6394;SDS011;3230;42.588;23.358;2022-08-11T06:50:45;6.50;;;4.60;;
6394;SDS011;3230;42.588;23.358;2022-08-11T06:53:32;10.80;;;5.27;;
6394;SDS011;3230;42.588;23.358;2022-08-11T06:55:58;4.33;;;3.93;;
6394;SDS011;3230;42.588;23.358;2022-08-11T06:58:46;4.30;;;4.00;;
6394;SDS011;3230;42.588;23.358;2022-08-11T07:01:35;5.13;;;4.30;;
6394;SDS011;3230;42.588;23.358;2022-08-11T07:04:10;6.83;;;4.93;;
6394;SDS011;3230;42.588;23.358;2022-08-11T07:06:39;4.70;;;4.30;;
6394;SDS011;3230;42.588;23.358;2022-08-11T07:12:57;4.53;;;4.13;;
6394;SDS011;3230;42.588;23.358;2022-08-11T07:15:42;5.97;;;4.10;;
6394;SDS011;3230;42.588;23.358;2022-08-11T07:18:15;4.90;;;4.07;;
6394;SDS011;3230;42.588;23.358;2022-08-11T07:21:23;4.47;;;4.07;;
6394;SDS011;3230;42.588;23.358;2022-08-11T07:24:19;6.10;;;4.40;;
6394;SDS011;3230;42.588;23.358;2022-08-11T07:27:08;6.00;;;4.53;;
6394;SDS011;3230;42.588;23.358;2022-08-11T07:29:57;6.40;;;3.63;;
6394;SDS011;3230;42.588;23.358;2022-08-11T07:32:30;4.00;;;3.70;;
6394;SDS011;3230;42.588;23.358;2022-08-11T07:35:03;4.33;;;3.93;;
6394;SDS011;3230;42.588;23.358;2022-08-11T07:37:38;9.20;;;4.40;;
6394;SDS011;3230;42.588;23.358;2022-08-11T07:40:07;6.03;;;4.30;;
6394;SDS011;3230;42.588;23.358;2022-08-11T07:42:34;5.40;;;4.13;;
6394;SDS011;3230;42.588;23.358;2022-08-11T07:45:01;4.77;;;4.37;;
6394;SDS011;3230;42.588;23.358;2022-08-11T07:47:49;5.20;;;4.20;;
6394;SDS011;3230;42.588;23.358;2022-08-11T07:50:40;10.50;;;4.50;;
6394;SDS011;3230;42.588;23.358;2022-08-11T07:53:26;6.00;;;4.60;;
6394;SDS011;3230;42.588;23.358;2022-08-11T07:55:54;5.40;;;4.90;;
6394;SDS011;3230;42.588;23.358;2022-08-11T07:58:22;6.43;;;4.67;;
6394;SDS011;3230;42.588;23.358;2022-08-11T08:01:08;5.70;;;4.63;;
6394;SDS011;3230;42.588;23.358;2022-08-11T08:03:54;5.80;;;4.30;;
6394;SDS011;3230;42.588;23.358;2022-08-11T08:06:41;6.83;;;4.80;;
6394;SDS011;3230;42.588;23.358;2022-08-11T08:09:27;5.17;;;4.50;;
6394;SDS011;3230;42.588;23.358;2022-08-11T08:12:15;6.27;;;3.93;;
6394;SDS011;3230;42.588;23.358;2022-08-11T08:15:05;5.40;;;4.90;;
6394;SDS011;3230;42.588;23.358;2022-08-11T08:17:50;6.50;;;4.47;;
6394;SDS011;3230;42.588;23.358;2022-08-11T08:20:17;5.20;;;4.70;;
6394;SDS011;3230;42.588;23.358;2022-08-11T08:22:54;7.40;;;5.00;;
6394;SDS011;3230;42.588;23.358;2022-08-11T08:25:23;5.57;;;4.53;;
6394;SDS011;3230;42.588;23.358;2022-08-11T08:27:50;5.87;;;4.73;;
6394;SDS011;3230;42.588;23.358;2022-08-11T08:30:17;9.10;;;4.40;;
6394;SDS011;3230;42.588;23.358;2022-08-11T08:33:02;5.57;;;4.30;;
6394;SDS011;3230;42.588;23.358;2022-08-11T08:35:28;5.53;;;3.73;;
6394;SDS011;3230;42.588;23.358;2022-08-11T08:37:55;4.97;;;4.57;;
6394;SDS011;3230;42.588;23.358;2022-08-11T08:40:24;4.80;;;4.40;;
6394;SDS011;3230;42.588;23.358;2022-08-11T08:42:51;4.77;;;4.10;;
6394;SDS011;3230;42.588;23.358;2022-08-11T08:45:19;6.10;;;4.70;;
6394;SDS011;3230;42.588;23.358;2022-08-11T08:47:47;5.40;;;4.90;;
6394;SDS011;3230;42.588;23.358;2022-08-11T08:50:20;4.50;;;4.07;;
6394;SDS011;3230;42.588;23.358;2022-08-11T08:52:51;5.80;;;4.40;;
6394;SDS011;3230;42.588;23.358;2022-08-11T08:55:20;5.47;;;4.97;;
6394;SDS011;3230;42.588;23.358;2022-08-11T08:57:48;6.10;;;4.07;;
6394;SDS011;3230;42.588;23.358;2022-08-11T09:00:16;5.20;;;4.27;;
6394;SDS011;3230;42.588;23.358;2022-08-11T09:02:43;7.00;;;4.70;;
6394;SDS011;3230;42.588;23.358;2022-08-11T09:05:09;5.00;;;4.50;;
6394;SDS011;3230;42.588;23.358;2022-08-11T09:07:36;5.03;;;4.63;;
6394;SDS011;3230;42.588;23.358;2022-08-11T09:10:03;4.80;;;4.30;;
6394;SDS011;3230;42.588;23.358;2022-08-11T09:12:31;5.90;;;3.80;;
6394;SDS011;3230;42.588;23.358;2022-08-11T09:14:59;4.47;;;4.07;;
6394;SDS011;3230;42.588;23.358;2022-08-11T09:17:34;4.23;;;3.77;;
6394;SDS011;3230;42.588;23.358;2022-08-11T09:20:05;4.20;;;3.80;;
6394;SDS011;3230;42.588;23.358;2022-08-11T09:22:32;6.47;;;4.00;;
6394;SDS011;3230;42.588;23.358;2022-08-11T09:25:19;6.50;;;4.07;;
6394;SDS011;3230;42.588;23.358;2022-08-11T09:28:11;6.80;;;3.90;;
6394;SDS011;3230;42.588;23.358;2022-08-11T09:30:41;8.30;;;4.60;;
6394;SDS011;3230;42.588;23.358;2022-08-11T09:33:08;5.43;;;4.43;;
6394;SDS011;3230;42.588;23.358;2022-08-11T09:35:36;5.40;;;4.53;;
6394;SDS011;3230;42.588;23.358;2022-08-11T09:38:04;5.53;;;4.70;;
6394;SDS011;3230;42.588;23.358;2022-08-11T09:40:49;5.67;;;4.63;;
6394;SDS011;3230;42.588;23.358;2022-08-11T09:43:16;6.10;;;4.80;;
6394;SDS011;3230;42.588;23.358;2022-08-11T09:46:01;8.30;;;4.40;;
6394;SDS011;3230;42.588;23.358;2022-08-11T09:48:29;6.77;;;4.67;;
6394;SDS011;3230;42.588;23.358;2022-08-11T09:50:59;9.23;;;5.30;;
6394;SDS011;3230;42.588;23.358;2022-08-11T09:53:26;6.23;;;4.40;;
6394;SDS011;3230;42.588;23.358;2022-08-11T09:55:55;5.47;;;4.07;;
6394;SDS011;3230;42.588;23.358;2022-08-11T09:58:21;5.57;;;4.70;;
6394;SDS011;3230;42.588;23.358;2022-08-11T10:00:48;6.00;;;4.73;;
6394;SDS011;3230;42.588;23.358;2022-08-11T10:03:20;6.23;;;4.80;;
6394;SDS011;3230;42.588;23.358;2022-08-11T10:06:08;5.00;;;4.43;;
6394;SDS011;3230;42.588;23.358;2022-08-11T10:08:52;6.57;;;4.77;;
6394;SDS011;3230;42.588;23.358;2022-08-11T10:11:20;6.60;;;4.90;;
6394;SDS011;3230;42.588;23.358;2022-08-11T10:13:48;5.47;;;4.70;;
6394;SDS011;3230;42.588;23.358;2022-08-11T10:16:36;7.20;;;4.80;;
6394;SDS011;3230;42.588;23.358;2022-08-11T10:19:05;4.90;;;4.40;;
6394;SDS011;3230;42.588;23.358;2022-08-11T10:21:40;10.20;;;5.27;;
6394;SDS011;3230;42.588;23.358;2022-08-11T10:24:08;9.57;;;4.63;;
6394;SDS011;3230;42.588;23.358;2022-08-11T10:26:54;7.80;;;4.60;;
6394;SDS011;3230;42.588;23.358;2022-08-11T10:32:24;5.50;;;4.20;;
6394;SDS011;3230;42.588;23.358;2022-08-11T10:35:10;6.00;;;4.53;;
6394;SDS011;3230;42.588;23.358;2022-08-11T10:37:38;7.67;;;4.70;;
6394;SDS011;3230;42.588;23.358;2022-08-11T10:40:09;9.90;;;4.90;;
6394;SDS011;3230;42.588;23.358;2022-08-11T10:42:39;5.00;;;4.30;;
6394;SDS011;3230;42.588;23.358;2022-08-11T10:45:24;6.90;;;4.50;;
6394;SDS011;3230;42.588;23.358;2022-08-11T10:48:08;6.10;;;4.50;;
6394;SDS011;3230;42.588;23.358;2022-08-11T10:50:34;5.40;;;4.20;;
6394;SDS011;3230;42.588;23.358;2022-08-11T10:53:19;5.33;;;4.40;;
6394;SDS011;3230;42.588;23.358;2022-08-11T10:56:03;6.23;;;4.23;;
6394;SDS011;3230;42.588;23.358;2022-08-11T10:58:48;5.37;;;4.70;;
6394;SDS011;3230;42.588;23.358;2022-08-11T11:01:32;15.83;;;7.23;;
6394;SDS011;3230;42.588;23.358;2022-08-11T11:04:00;6.57;;;4.70;;
6394;SDS011;3230;42.588;23.358;2022-08-11T11:09:16;7.80;;;5.10;;
6394;SDS011;3230;42.588;23.358;2022-08-11T11:11:50;6.60;;;4.93;;
6394;SDS011;3230;42.588;23.358;2022-08-11T11:14:39;6.70;;;4.57;;
6394;SDS011;3230;42.588;23.358;2022-08-11T11:17:26;6.27;;;4.17;;
6394;SDS011;3230;42.588;23.358;2022-08-11T11:20:11;7.97;;;5.37;;
6394;SDS011;3230;42.588;23.358;2022-08-11T11:22:41;7.03;;;4.80;;
6394;SDS011;3230;42.588;23.358;2022-08-11T11:25:29;5.13;;;4.23;;
6394;SDS011;3230;42.588;23.358;2022-08-11T11:39:24;5.20;;;3.90;;
6394;SDS011;3230;42.588;23.358;2022-08-11T11:41:52;9.37;;;4.40;;
6394;SDS011;3230;42.588;23.358;2022-08-11T11:44:20;6.00;;;4.07;;
6394;SDS011;3230;42.588;23.358;2022-08-11T11:46:47;5.63;;;4.40;;
6394;SDS011;3230;42.588;23.358;2022-08-11T11:49:13;6.83;;;4.47;;
6394;SDS011;3230;42.588;23.358;2022-08-11T11:51:42;6.43;;;4.40;;
6394;SDS011;3230;42.588;23.358;2022-08-11T11:54:10;7.60;;;4.50;;
6394;SDS011;3230;42.588;23.358;2022-08-11T11:56:39;7.80;;;4.57;;
6394;SDS011;3230;42.588;23.358;2022-08-11T11:59:05;6.03;;;4.43;;
6394;SDS011;3230;42.588;23.358;2022-08-11T12:01:50;6.63;;;4.30;;
6394;SDS011;3230;42.588;23.358;2022-08-11T12:04:18;7.17;;;4.20;;
6394;SDS011;3230;42.588;23.358;2022-08-11T12:06:45;7.67;;;4.53;;
6394;SDS011;3230;42.588;23.358;2022-08-11T12:09:11;4.33;;;3.60;;
6394;SDS011;3230;42.588;23.358;2022-08-11T12:11:42;6.20;;;4.50;;
6394;SDS011;3230;42.588;23.358;2022-08-11T12:14:27;6.30;;;4.40;;
6394;SDS011;3230;42.588;23.358;2022-08-11T12:16:53;5.73;;;4.60;;
6394;SDS011;3230;42.588;23.358;2022-08-11T12:19:22;6.53;;;4.47;;
6394;SDS011;3230;42.588;23.358;2022-08-11T12:21:49;8.00;;;4.33;;
6394;SDS011;3230;42.588;23.358;2022-08-11T12:24:34;6.93;;;4.73;;
6394;SDS011;3230;42.588;23.358;2022-08-11T12:27:20;10.70;;;4.87;;
6394;SDS011;3230;42.588;23.358;2022-08-11T12:29:47;6.17;;;4.30;;
6394;SDS011;3230;42.588;23.358;2022-08-11T12:32:15;8.80;;;4.70;;
6394;SDS011;3230;42.588;23.358;2022-08-11T12:34:41;8.23;;;4.43;;
6394;SDS011;3230;42.588;23.358;2022-08-11T12:37:09;6.30;;;4.80;;
6394;SDS011;3230;42.588;23.358;2022-08-11T12:39:37;5.27;;;4.70;;
6394;SDS011;3230;42.588;23.358;2022-08-11T12:42:26;6.53;;;4.47;;
6394;SDS011;3230;42.588;23.358;2022-08-11T12:45:15;6.80;;;4.67;;
6394;SDS011;3230;42.588;23.358;2022-08-11T12:51:01;6.50;;;4.67;;
6394;SDS011;3230;42.588;23.358;2022-08-11T12:53:52;6.07;;;4.60;;
6394;SDS011;3230;42.588;23.358;2022-08-11T12:56:18;7.80;;;4.93;;
6394;SDS011;3230;42.588;23.358;2022-08-11T12:59:03;10.77;;;4.70;;
6394;SDS011;3230;42.588;23.358;2022-08-11T13:01:48;5.60;;;4.87;;
6394;SDS011;3230;42.588;23.358;2022-08-11T13:04:33;8.77;;;4.17;;
6394;SDS011;3230;42.588;23.358;2022-08-11T13:07:20;7.73;;;4.83;;
6394;SDS011;3230;42.588;23.358;2022-08-11T13:09:46;9.67;;;4.97;;
6394;SDS011;3230;42.588;23.358;2022-08-11T13:12:13;6.87;;;5.30;;
6394;SDS011;3230;42.588;23.358;2022-08-11T13:14:58;5.37;;;4.40;;
6394;SDS011;3230;42.588;23.358;2022-08-11T13:17:26;9.30;;;4.80;;
6394;SDS011;3230;42.588;23.358;2022-08-11T13:19:53;7.97;;;4.90;;
6394;SDS011;3230;42.588;23.358;2022-08-11T13:22:22;5.23;;;4.40;;
6394;SDS011;3230;42.588;23.358;2022-08-11T13:24:51;8.13;;;4.10;;
6394;SDS011;3230;42.588;23.358;2022-08-11T13:27:19;5.23;;;4.23;;
6394;SDS011;3230;42.588;23.358;2022-08-11T13:29:46;6.57;;;4.03;;
6394;SDS011;3230;42.588;23.358;2022-08-11T13:32:14;11.90;;;4.20;;
6394;SDS011;3230;42.588;23.358;2022-08-11T13:34:40;6.10;;;4.67;;
6394;SDS011;3230;42.588;23.358;2022-08-11T13:37:10;8.10;;;4.20;;
6394;SDS011;3230;42.588;23.358;2022-08-11T13:39:40;5.60;;;4.00;;
6394;SDS011;3230;42.588;23.358;2022-08-11T13:42:11;4.93;;;3.93;;
6394;SDS011;3230;42.588;23.358;2022-08-11T13:44:40;5.00;;;4.07;;
6394;SDS011;3230;42.588;23.358;2022-08-11T13:47:06;6.13;;;4.00;;
6394;SDS011;3230;42.588;23.358;2022-08-11T13:49:35;7.20;;;3.90;;
6394;SDS011;3230;42.588;23.358;2022-08-11T13:52:01;6.30;;;4.30;;
6394;SDS011;3230;42.588;23.358;2022-08-11T13:54:33;9.37;;;4.20;;
6394;SDS011;3230;42.588;23.358;2022-08-11T13:57:03;4.63;;;3.70;;
6394;SDS011;3230;42.588;23.358;2022-08-11T13:59:31;4.90;;;4.13;;
6394;SDS011;3230;42.588;23.358;2022-08-11T14:02:01;5.70;;;4.20;;
6394;SDS011;3230;42.588;23.358;2022-08-11T14:04:29;6.90;;;4.90;;
6394;SDS011;3230;42.588;23.358;2022-08-11T14:06:59;6.10;;;4.30;;
6394;SDS011;3230;42.588;23.358;2022-08-11T14:09:31;5.77;;;4.67;;
6394;SDS011;3230;42.588;23.358;2022-08-11T14:12:02;12.97;;;4.70;;
6394;SDS011;3230;42.588;23.358;2022-08-11T14:14:53;6.00;;;4.33;;
6394;SDS011;3230;42.588;23.358;2022-08-11T14:17:24;5.93;;;3.97;;
6394;SDS011;3230;42.588;23.358;2022-08-11T14:19:53;5.80;;;4.40;;
6394;SDS011;3230;42.588;23.358;2022-08-11T14:22:19;5.80;;;4.57;;
6394;SDS011;3230;42.588;23.358;2022-08-11T14:24:46;6.93;;;4.20;;
6394;SDS011;3230;42.588;23.358;2022-08-11T14:27:15;11.20;;;5.00;;
6394;SDS011;3230;42.588;23.358;2022-08-11T14:29:41;7.27;;;4.50;;
6394;SDS011;3230;42.588;23.358;2022-08-11T14:32:10;4.70;;;4.10;;
6394;SDS011;3230;42.588;23.358;2022-08-11T14:34:41;4.50;;;3.70;;
6394;SDS011;3230;42.588;23.358;2022-08-11T14:37:09;4.93;;;3.90;;
6394;SDS011;3230;42.588;23.358;2022-08-11T14:39:39;4.50;;;3.97;;
6394;SDS011;3230;42.588;23.358;2022-08-11T14:42:07;5.70;;;3.90;;
6394;SDS011;3230;42.588;23.358;2022-08-11T14:44:56;5.30;;;4.23;;
6394;SDS011;3230;42.588;23.358;2022-08-11T14:47:43;6.50;;;4.57;;
6394;SDS011;3230;42.588;23.358;2022-08-11T14:50:14;9.13;;;4.20;;
6394;SDS011;3230;42.588;23.358;2022-08-11T14:52:44;4.80;;;3.87;;
6394;SDS011;3230;42.588;23.358;2022-08-11T14:55:14;10.20;;;4.03;;
6394;SDS011;3230;42.588;23.358;2022-08-11T14:57:59;5.20;;;4.30;;
6394;SDS011;3230;42.588;23.358;2022-08-11T15:00:26;6.13;;;3.77;;
6394;SDS011;3230;42.588;23.358;2022-08-11T15:02:51;4.70;;;4.00;;
6394;SDS011;3230;42.588;23.358;2022-08-11T15:05:46;5.10;;;4.47;;
6394;SDS011;3230;42.588;23.358;2022-08-11T15:08:14;13.60;;;4.60;;
6394;SDS011;3230;42.588;23.358;2022-08-11T15:10:41;5.77;;;4.10;;
6394;SDS011;3230;42.588;23.358;2022-08-11T15:13:08;5.00;;;3.47;;
6394;SDS011;3230;42.588;23.358;2022-08-11T15:15:34;4.60;;;4.10;;
6394;SDS011;3230;42.588;23.358;2022-08-11T15:18:19;4.93;;;4.20;;
6394;SDS011;3230;42.588;23.358;2022-08-11T15:20:48;7.60;;;3.83;;
6394;SDS011;3230;42.588;23.358;2022-08-11T15:23:32;4.43;;;3.90;;
6394;SDS011;3230;42.588;23.358;2022-08-11T15:26:21;4.77;;;4.10;;
6394;SDS011;3230;42.588;23.358;2022-08-11T15:29:14;6.07;;;4.60;;
6394;SDS011;3230;42.588;23.358;2022-08-11T15:32:05;5.57;;;4.00;;
6394;SDS011;3230;42.588;23.358;2022-08-11T15:34:44;5.73;;;3.97;;
6394;SDS011;3230;42.588;23.358;2022-08-11T15:37:32;5.73;;;4.13;;
6394;SDS011;3230;42.588;23.358;2022-08-11T15:40:02;11.60;;;5.03;;
6394;SDS011;3230;42.588;23.358;2022-08-11T15:46:54;5.50;;;4.30;;
6394;SDS011;3230;42.588;23.358;2022-08-11T15:49:30;6.60;;;4.40;;
6394;SDS011;3230;42.588;23.358;2022-08-11T15:52:02;4.90;;;4.13;;
6394;SDS011;3230;42.588;23.358;2022-08-11T15:54:32;8.97;;;3.80;;
6394;SDS011;3230;42.588;23.358;2022-08-11T15:57:02;6.33;;;4.50;;
6394;SDS011;3230;42.588;23.358;2022-08-11T15:59:33;6.93;;;4.67;;
6394;SDS011;3230;42.588;23.358;2022-08-11T16:02:20;4.87;;;4.00;;
6394;SDS011;3230;42.588;23.358;2022-08-11T16:05:01;7.10;;;4.00;;
6394;SDS011;3230;42.588;23.358;2022-08-11T16:07:31;4.40;;;4.00;;
6394;SDS011;3230;42.588;23.358;2022-08-11T16:10:02;15.20;;;4.20;;
6394;SDS011;3230;42.588;23.358;2022-08-11T16:12:48;6.77;;;4.10;;
6394;SDS011;3230;42.588;23.358;2022-08-11T16:15:31;6.70;;;4.70;;
6394;SDS011;3230;42.588;23.358;2022-08-11T16:18:19;5.30;;;4.20;;
6394;SDS011;3230;42.588;23.358;2022-08-11T16:20:46;7.37;;;3.97;;
6394;SDS011;3230;42.588;23.358;2022-08-11T16:23:15;5.20;;;3.90;;
6394;SDS011;3230;42.588;23.358;2022-08-11T16:25:42;6.70;;;4.27;;
6394;SDS011;3230;42.588;23.358;2022-08-11T16:28:11;7.90;;;3.80;;
6394;SDS011;3230;42.588;23.358;2022-08-11T16:30:38;10.27;;;4.50;;
6394;SDS011;3230;42.588;23.358;2022-08-11T16:33:08;7.67;;;4.53;;
6394;SDS011;3230;42.588;23.358;2022-08-11T16:35:35;9.10;;;4.30;;
6394;SDS011;3230;42.588;23.358;2022-08-11T16:38:36;5.50;;;4.03;;
6394;SDS011;3230;42.588;23.358;2022-08-11T16:41:08;7.20;;;4.10;;
6394;SDS011;3230;42.588;23.358;2022-08-11T16:43:45;3.80;;;3.40;;
6394;SDS011;3230;42.588;23.358;2022-08-11T16:46:32;4.57;;;4.07;;
6394;SDS011;3230;42.588;23.358;2022-08-11T16:49:40;5.10;;;3.80;;
6394;SDS011;3230;42.588;23.358;2022-08-11T16:52:13;6.10;;;3.87;;
6394;SDS011;3230;42.588;23.358;2022-08-11T16:54:40;6.07;;;4.00;;
6394;SDS011;3230;42.588;23.358;2022-08-11T16:57:11;4.80;;;3.97;;
6394;SDS011;3230;42.588;23.358;2022-08-11T16:59:58;6.40;;;4.03;;
6394;SDS011;3230;42.588;23.358;2022-08-11T17:02:30;4.67;;;3.90;;
6394;SDS011;3230;42.588;23.358;2022-08-11T17:05:18;4.70;;;4.20;;
6394;SDS011;3230;42.588;23.358;2022-08-11T17:08:04;5.83;;;4.20;;
6394;SDS011;3230;42.588;23.358;2022-08-11T17:10:57;8.13;;;4.60;;
6394;SDS011;3230;42.588;23.358;2022-08-11T17:14:00;6.80;;;4.07;;
6394;SDS011;3230;42.588;23.358;2022-08-11T17:16:35;9.57;;;5.33;;
6394;SDS011;3230;42.588;23.358;2022-08-11T17:19:05;20.30;;;6.77;;
6394;SDS011;3230;42.588;23.358;2022-08-11T17:24:21;18.93;;;7.33;;
6394;SDS011;3230;42.588;23.358;2022-08-11T17:26:51;18.03;;;6.47;;
6394;SDS011;3230;42.588;23.358;2022-08-11T17:29:32;13.70;;;6.13;;
6394;SDS011;3230;42.588;23.358;2022-08-11T17:32:03;16.20;;;5.90;;
6394;SDS011;3230;42.588;23.358;2022-08-11T17:34:50;11.57;;;6.10;;
6394;SDS011;3230;42.588;23.358;2022-08-11T17:37:36;9.10;;;5.03;;
6394;SDS011;3230;42.588;23.358;2022-08-11T17:40:04;8.10;;;5.43;;
6394;SDS011;3230;42.588;23.358;2022-08-11T17:42:32;8.37;;;5.20;;
6394;SDS011;3230;42.588;23.358;2022-08-11T17:45:18;8.93;;;6.20;;
6394;SDS011;3230;42.588;23.358;2022-08-11T17:48:04;10.03;;;6.47;;
6394;SDS011;3230;42.588;23.358;2022-08-11T17:50:59;10.33;;;5.80;;
6394;SDS011;3230;42.588;23.358;2022-08-11T17:53:37;13.53;;;6.60;;
6394;SDS011;3230;42.588;23.358;2022-08-11T17:56:23;8.10;;;6.13;;
6394;SDS011;3230;42.588;23.358;2022-08-11T17:59:08;9.03;;;6.27;;
6394;SDS011;3230;42.588;23.358;2022-08-11T18:01:55;8.63;;;5.87;;
6394;SDS011;3230;42.588;23.358;2022-08-11T18:04:43;6.60;;;5.07;;
6394;SDS011;3230;42.588;23.358;2022-08-11T18:07:11;8.00;;;5.60;;
6394;SDS011;3230;42.588;23.358;2022-08-11T18:09:57;8.17;;;5.80;;
6394;SDS011;3230;42.588;23.358;2022-08-11T18:12:42;7.90;;;5.47;;
6394;SDS011;3230;42.588;23.358;2022-08-11T18:15:29;8.70;;;6.70;;
6394;SDS011;3230;42.588;23.358;2022-08-11T18:18:13;10.90;;;7.50;;
6394;SDS011;3230;42.588;23.358;2022-08-11T18:20:57;9.93;;;6.70;;
6394;SDS011;3230;42.588;23.358;2022-08-11T18:23:41;10.60;;;7.77;;
6394;SDS011;3230;42.588;23.358;2022-08-11T18:26:26;9.10;;;6.83;;
6394;SDS011;3230;42.588;23.358;2022-08-11T18:29:12;9.87;;;6.40;;
6394;SDS011;3230;42.588;23.358;2022-08-11T18:31:58;8.17;;;6.23;;
6394;SDS011;3230;42.588;23.358;2022-08-11T18:34:44;9.83;;;6.97;;
6394;SDS011;3230;42.588;23.358;2022-08-11T18:37:29;8.07;;;6.10;;
6394;SDS011;3230;42.588;23.358;2022-08-11T18:40:21;11.00;;;6.50;;
6394;SDS011;3230;42.588;23.358;2022-08-11T18:43:09;9.90;;;6.63;;
6394;SDS011;3230;42.588;23.358;2022-08-11T18:46:00;7.67;;;5.93;;
6394;SDS011;3230;42.588;23.358;2022-08-11T18:48:48;8.20;;;6.20;;
6394;SDS011;3230;42.588;23.358;2022-08-11T18:51:35;9.77;;;6.27;;
6394;SDS011;3230;42.588;23.358;2022-08-11T18:54:21;7.47;;;5.73;;
6394;SDS011;3230;42.588;23.358;2022-08-11T18:57:07;6.97;;;5.60;;
6394;SDS011;3230;42.588;23.358;2022-08-11T18:59:53;8.47;;;6.60;;
6394;SDS011;3230;42.588;23.358;2022-08-11T19:02:39;10.50;;;6.40;;
6394;SDS011;3230;42.588;23.358;2022-08-11T19:05:25;9.97;;;6.30;;
6394;SDS011;3230;42.588;23.358;2022-08-11T19:08:13;8.47;;;6.03;;
6394;SDS011;3230;42.588;23.358;2022-08-11T19:11:01;8.67;;;6.60;;
6394;SDS011;3230;42.588;23.358;2022-08-11T19:13:45;7.70;;;6.50;;
6394;SDS011;3230;42.588;23.358;2022-08-11T19:16:31;8.10;;;6.13;;
6394;SDS011;3230;42.588;23.358;2022-08-11T19:19:17;7.73;;;5.90;;
6394;SDS011;3230;42.588;23.358;2022-08-11T19:22:02;20.23;;;6.90;;
6394;SDS011;3230;42.588;23.358;2022-08-11T19:24:47;8.70;;;6.40;;
6394;SDS011;3230;42.588;23.358;2022-08-11T19:27:34;11.33;;;5.93;;
6394;SDS011;3230;42.588;23.358;2022-08-11T19:30:20;8.73;;;6.47;;
6394;SDS011;3230;42.588;23.358;2022-08-11T19:33:04;7.80;;;6.30;;
6394;SDS011;3230;42.588;23.358;2022-08-11T19:35:49;9.80;;;6.43;;
6394;SDS011;3230;42.588;23.358;2022-08-11T19:38:33;8.10;;;6.43;;
6394;SDS011;3230;42.588;23.358;2022-08-11T19:41:19;10.03;;;6.60;;
6394;SDS011;3230;42.588;23.358;2022-08-11T19:44:06;8.00;;;6.07;;
6394;SDS011;3230;42.588;23.358;2022-08-11T19:46:51;10.90;;;6.30;;
6394;SDS011;3230;42.588;23.358;2022-08-11T19:49:36;14.43;;;5.67;;
6394;SDS011;3230;42.588;23.358;2022-08-11T19:52:22;7.93;;;5.87;;
6394;SDS011;3230;42.588;23.358;2022-08-11T19:55:06;7.20;;;5.87;;
6394;SDS011;3230;42.588;23.358;2022-08-11T19:57:53;9.87;;;7.40;;
6394;SDS011;3230;42.588;23.358;2022-08-11T20:00:38;7.43;;;5.60;;
6394;SDS011;3230;42.588;23.358;2022-08-11T20:03:23;7.80;;;6.10;;
6394;SDS011;3230;42.588;23.358;2022-08-11T20:06:07;6.70;;;5.40;;
6394;SDS011;3230;42.588;23.358;2022-08-11T20:08:59;9.43;;;6.30;;
6394;SDS011;3230;42.588;23.358;2022-08-11T20:11:46;10.10;;;5.90;;
6394;SDS011;3230;42.588;23.358;2022-08-11T20:14:33;8.00;;;5.93;;